Time;durP1;ratioP1;P1;durP2;ratioP2;P2;SDS_P1;SDS_P2;PMS_P1;PMS_P2;Temp;Humidity;BMP_temperature;BMP_pressure;BME280_temperature;BME280_humidity;BME280_pressure;Samples;Min_cycle;Max_cycle;Signal;HPM_P1;HPM_P2
2023/01/05 00:01:35;;;;;;;10.68;3.85;;;9.60;99.90;;;;;;4988023;28;20561;-81
2023/01/05 00:04:01;;;;;;;13.73;5.50;;;9.60;99.90;;;;;;4995197;28;20045;-81
2023/01/05 00:06:27;;;;;;;17.15;4.80;;;9.60;99.90;;;;;;4999138;28;20394;-81
2023/01/05 00:08:52;;;;;;;10.90;4.10;;;9.50;99.90;;;;;;5005555;28;20041;-80
2023/01/05 00:22:29;;;;;;;14.13;5.03;;;9.50;99.90;;;;;;4995319;28;20049;-81
2023/01/05 00:24:56;;;;;;;9.85;3.47;;;9.50;99.90;;;;;;5003764;28;20488;-80
2023/01/05 00:27:21;;;;;;;11.90;4.90;;;9.50;99.90;;;;;;5004912;28;20034;-81
2023/01/05 00:29:47;;;;;;;30.85;5.57;;;9.50;99.90;;;;;;5004219;28;20045;-80
2023/01/05 00:32:13;;;;;;;20.67;5.25;;;9.50;99.90;;;;;;5005450;28;20046;-80
2023/01/05 00:34:38;;;;;;;14.52;5.72;;;9.50;99.90;;;;;;5004654;28;20092;-80
2023/01/05 00:37:04;;;;;;;9.88;3.83;;;9.50;99.90;;;;;;5005112;28;20452;-82
2023/01/05 00:39:29;;;;;;;21.35;6.45;;;9.50;99.90;;;;;;4996920;28;20057;-80
2023/01/05 00:41:55;;;;;;;12.10;5.15;;;9.50;99.90;;;;;;4986457;28;20049;-80
2023/01/05 00:44:20;;;;;;;17.17;4.60;;;9.50;99.90;;;;;;4992413;28;20485;-79
2023/01/05 00:46:46;;;;;;;12.82;5.25;;;9.50;99.90;;;;;;4994954;28;20053;-79
2023/01/05 00:49:11;;;;;;;26.58;5.13;;;9.50;99.90;;;;;;5000922;28;20244;-79
2023/01/05 00:51:37;;;;;;;19.40;4.97;;;9.50;99.90;;;;;;5000884;28;20038;-79
2023/01/05 00:54:02;;;;;;;17.70;5.43;;;9.60;99.90;;;;;;5004238;28;20477;-79
2023/01/05 00:56:28;;;;;;;9.82;4.60;;;9.60;99.90;;;;;;4992498;28;20098;-79
2023/01/05 00:58:54;;;;;;;8.23;3.35;;;9.60;99.90;;;;;;4988349;28;20891;-79
2023/01/05 01:01:20;;;;;;;10.60;4.13;;;9.60;99.90;;;;;;5005536;28;20054;-79
2023/01/05 01:03:45;;;;;;;14.57;4.80;;;9.60;99.90;;;;;;5005606;28;20480;-79
2023/01/05 01:06:12;;;;;;;7.65;2.92;;;9.60;99.90;;;;;;5003848;28;20034;-79
2023/01/05 01:08:38;;;;;;;16.30;5.15;;;9.60;99.90;;;;;;4991888;28;20057;-79
2023/01/05 01:11:08;;;;;;;10.00;4.03;;;9.60;99.90;;;;;;4986988;28;20050;-79
2023/01/05 01:13:35;;;;;;;7.13;3.22;;;9.60;99.90;;;;;;5004544;28;20456;-79
2023/01/05 01:16:13;;;;;;;11.02;3.13;;;9.60;99.90;;;;;;5000723;28;20050;-79
2023/01/05 01:18:39;;;;;;;14.52;4.40;;;9.70;99.90;;;;;;4985796;28;20046;-79
2023/01/05 01:21:05;;;;;;;13.27;6.18;;;9.70;99.90;;;;;;4985421;28;20540;-79
2023/01/05 01:23:33;;;;;;;10.88;4.65;;;9.70;99.90;;;;;;4986183;28;20048;-79
2023/01/05 01:26:02;;;;;;;15.27;4.75;;;9.70;99.90;;;;;;5001009;28;20042;-79
2023/01/05 01:28:28;;;;;;;16.15;4.93;;;9.70;99.90;;;;;;4984716;28;20046;-79
2023/01/05 01:30:53;;;;;;;10.07;3.55;;;9.70;99.90;;;;;;4995756;28;20123;-79
2023/01/05 01:33:19;;;;;;;9.43;3.00;;;9.70;99.90;;;;;;5004978;28;20048;-79
2023/01/05 01:35:44;;;;;;;15.57;4.15;;;9.70;99.90;;;;;;5005226;28;20038;-79
2023/01/05 01:38:10;;;;;;;18.27;4.22;;;9.70;99.90;;;;;;4999900;28;20405;-79
2023/01/05 01:40:40;;;;;;;12.10;3.50;;;9.70;99.90;;;;;;4997726;28;20072;-79
2023/01/05 01:43:18;;;;;;;15.27;4.65;;;9.70;99.90;;;;;;5004088;28;20038;-79
2023/01/05 01:45:43;;;;;;;15.02;4.00;;;9.70;99.90;;;;;;4984617;28;20074;-79
2023/01/05 01:48:13;;;;;;;12.95;3.75;;;9.60;99.90;;;;;;4985082;28;20186;-79
2023/01/05 01:50:51;;;;;;;18.92;4.80;;;9.60;99.90;;;;;;4985515;28;20054;-79
2023/01/05 01:53:23;;;;;;;20.10;5.38;;;9.60;99.90;;;;;;4985940;28;20085;-79
2023/01/05 01:55:51;;;;;;;8.30;3.22;;;9.60;99.90;;;;;;4988985;28;20053;-79
2023/01/05 01:58:20;;;;;;;9.07;4.35;;;9.60;99.90;;;;;;5004435;28;20484;-79
2023/01/05 02:00:46;;;;;;;12.30;3.38;;;9.60;99.90;;;;;;5004931;28;20057;-79
2023/01/05 02:03:13;;;;;;;12.25;3.80;;;9.60;99.90;;;;;;5004036;28;20092;-79
2023/01/05 02:05:39;;;;;;;17.20;4.68;;;9.60;99.90;;;;;;5004539;28;20385;-79
2023/01/05 02:08:11;;;;;;;12.63;3.78;;;9.60;99.90;;;;;;4992166;28;20073;-79
2023/01/05 02:11:02;;;;;;;13.88;4.00;;;9.60;99.90;;;;;;5004604;28;20042;-79
2023/01/05 02:13:33;;;;;;;6.95;3.08;;;9.50;99.90;;;;;;4994878;28;20054;-79
2023/01/05 02:16:05;;;;;;;19.73;4.88;;;9.50;99.90;;;;;;5000924;28;20508;-80
2023/01/05 02:18:59;;;;;;;10.15;3.78;;;9.50;99.90;;;;;;5001333;28;20400;-79
2023/01/05 02:21:27;;;;;;;11.13;3.33;;;9.50;99.90;;;;;;5004645;28;20125;-79
2023/01/05 02:24:38;;;;;;;9.82;4.05;;;9.50;99.90;;;;;;5004029;28;20133;-79
2023/01/05 02:27:38;;;;;;;21.15;5.70;;;9.50;99.90;;;;;;4994655;28;20096;-79
2023/01/05 02:30:38;;;;;;;12.25;4.28;;;9.50;99.90;;;;;;5002539;28;20540;-79
2023/01/05 02:33:18;;;;;;;13.25;4.88;;;9.50;99.90;;;;;;4984147;28;20077;-79
2023/01/05 02:35:59;;;;;;;17.58;5.63;;;9.50;99.90;;;;;;4984209;28;20050;-79
2023/01/05 02:38:54;;;;;;;15.13;3.70;;;9.50;99.90;;;;;;4985172;28;20053;-79
2023/01/05 02:41:28;;;;;;;11.10;4.35;;;9.50;99.90;;;;;;4985172;28;20042;-79
2023/01/05 02:43:55;;;;;;;14.95;4.85;;;9.50;99.90;;;;;;4996520;28;20033;-79
2023/01/05 02:46:21;;;;;;;8.50;3.95;;;9.50;99.90;;;;;;5002669;28;20048;-79
2023/01/05 02:48:49;;;;;;;10.98;3.58;;;9.50;99.90;;;;;;5004378;28;20675;-79
2023/01/05 02:51:20;;;;;;;10.63;3.92;;;9.50;99.90;;;;;;5005027;28;20185;-79
2023/01/05 02:53:50;;;;;;;13.15;3.65;;;9.50;99.90;;;;;;5005959;28;20100;-79
2023/01/05 02:56:26;;;;;;;16.48;4.72;;;9.50;99.90;;;;;;4995758;28;20038;-79
2023/01/05 02:58:57;;;;;;;8.50;3.85;;;9.40;99.90;;;;;;5006760;28;20108;-79
2023/01/05 03:01:27;;;;;;;17.98;4.75;;;9.40;99.90;;;;;;5007566;28;20575;-79
2023/01/05 03:03:57;;;;;;;17.17;5.13;;;9.40;99.90;;;;;;5007429;28;20401;-79
2023/01/05 03:06:55;;;;;;;13.38;4.70;;;9.40;99.90;;;;;;5002415;23;20060;-79
2023/01/05 03:09:25;;;;;;;18.35;4.50;;;9.50;99.90;;;;;;4936808;28;20139;-79
2023/01/05 03:15:08;;;;;;;12.55;4.75;;;9.40;99.90;;;;;;4907385;29;20101;-79
2023/01/05 03:17:40;;;;;;;14.15;5.57;;;9.40;99.90;;;;;;4913912;29;20074;-78
2023/01/05 03:20:07;;;;;;;11.40;3.88;;;9.40;99.90;;;;;;4926575;29;20079;-78
2023/01/05 03:37:03;;;;;;;15.13;5.88;;;9.50;99.90;;;;;;4909544;29;20275;-79
2023/01/05 03:39:30;;;;;;;11.48;5.05;;;9.50;99.90;;;;;;4919642;29;20505;-79
2023/01/05 03:41:56;;;;;;;15.15;4.40;;;9.50;99.90;;;;;;4926377;29;20105;-79
2023/01/05 03:44:22;;;;;;;9.73;3.58;;;9.50;99.90;;;;;;4925507;28;20047;-79
2023/01/05 03:46:47;;;;;;;12.80;5.50;;;9.50;99.90;;;;;;4925729;29;20453;-79
2023/01/05 03:49:13;;;;;;;13.00;4.40;;;9.50;99.90;;;;;;4915441;28;20106;-79
2023/01/05 03:51:39;;;;;;;11.82;4.20;;;9.50;99.90;;;;;;4908055;29;20060;-79
2023/01/05 03:54:04;;;;;;;19.05;5.35;;;9.50;99.90;;;;;;4907445;28;20056;-79
2023/01/05 03:56:30;;;;;;;11.00;4.00;;;9.50;99.90;;;;;;4907970;29;20405;-79
2023/01/05 03:58:55;;;;;;;16.90;5.90;;;9.50;99.90;;;;;;4907731;29;20488;-79
2023/01/05 04:01:21;;;;;;;10.32;5.07;;;9.50;99.90;;;;;;4908652;29;20043;-79
2023/01/05 04:03:47;;;;;;;10.70;3.70;;;9.50;99.90;;;;;;4910760;29;20571;-79
2023/01/05 04:06:12;;;;;;;16.83;5.47;;;9.50;99.90;;;;;;4923869;29;20051;-79
2023/01/05 04:08:38;;;;;;;11.35;3.85;;;9.50;99.90;;;;;;4921706;28;20056;-79
2023/01/05 04:11:17;;;;;;;18.20;4.57;;;9.50;99.90;;;;;;4919611;28;20094;-79
2023/01/05 04:13:43;;;;;;;19.80;3.63;;;9.40;99.90;;;;;;4931192;28;20059;-79
2023/01/05 04:16:09;;;;;;;12.98;6.57;;;9.40;99.90;;;;;;4924351;29;20035;-78
2023/01/05 04:18:35;;;;;;;18.08;4.32;;;9.40;99.90;;;;;;4909976;29;20048;-79
2023/01/05 04:21:00;;;;;;;13.88;4.82;;;9.40;99.90;;;;;;4925832;29;20052;-78
2023/01/05 04:23:26;;;;;;;8.55;4.95;;;9.40;99.90;;;;;;4910356;29;20043;-79
2023/01/05 04:25:51;;;;;;;16.85;4.82;;;9.40;99.90;;;;;;4921333;29;20040;-79
2023/01/05 04:28:17;;;;;;;12.70;5.03;;;9.40;99.90;;;;;;4922690;29;20046;-79
2023/01/05 04:30:44;;;;;;;13.10;3.83;;;9.40;99.90;;;;;;4917176;29;20109;-79
2023/01/05 04:33:10;;;;;;;10.23;4.32;;;9.40;99.90;;;;;;4921221;28;20044;-79
2023/01/05 04:35:36;;;;;;;22.77;6.68;;;9.40;99.90;;;;;;4926150;29;20044;-79
2023/01/05 04:38:01;;;;;;;7.95;2.92;;;9.40;99.90;;;;;;4925133;29;20043;-79
2023/01/05 04:40:27;;;;;;;7.60;3.60;;;9.40;99.90;;;;;;4908688;29;20075;-79
2023/01/05 04:42:52;;;;;;;14.55;4.55;;;9.50;99.90;;;;;;4905135;29;20119;-79
2023/01/05 04:45:18;;;;;;;15.95;3.15;;;9.50;99.90;;;;;;4906183;29;20127;-79
2023/01/05 04:47:43;;;;;;;9.02;4.50;;;9.50;99.90;;;;;;4905883;29;20052;-78
2023/01/05 04:50:09;;;;;;;13.05;4.00;;;9.50;99.90;;;;;;4921180;29;20048;-79
2023/01/05 04:52:35;;;;;;;7.63;5.32;;;9.50;99.90;;;;;;4925562;29;20044;-79
2023/01/05 04:55:00;;;;;;;10.70;4.07;;;9.50;99.90;;;;;;4911614;29;20060;-78
2023/01/05 04:57:26;;;;;;;16.85;3.95;;;9.50;99.90;;;;;;4906064;28;20059;-79
2023/01/05 04:59:52;;;;;;;14.65;4.50;;;9.50;99.90;;;;;;4906319;29;20547;-78
2023/01/05 05:02:18;;;;;;;19.00;4.03;;;9.50;99.90;;;;;;4907664;29;20127;-78
2023/01/05 05:04:44;;;;;;;15.07;5.10;;;9.50;99.90;;;;;;4913957;29;20143;-78
2023/01/05 05:07:10;;;;;;;11.02;4.30;;;9.50;99.90;;;;;;4923979;29;20043;-79
2023/01/05 05:09:35;;;;;;;13.05;3.80;;;9.50;99.90;;;;;;4910400;28;20400;-79
2023/01/05 05:12:01;;;;;;;10.90;4.85;;;9.50;99.90;;;;;;4905624;29;20144;-79
2023/01/05 05:14:26;;;;;;;17.63;5.85;;;9.50;99.90;;;;;;4919366;29;20056;-79
2023/01/05 05:16:52;;;;;;;21.58;6.38;;;9.50;99.90;;;;;;4909467;29;20055;-79
2023/01/05 05:19:17;;;;;;;13.20;4.55;;;9.50;99.90;;;;;;4910407;28;20126;-78
2023/01/05 05:21:43;;;;;;;20.98;4.53;;;9.50;99.90;;;;;;4925339;29;20437;-79
2023/01/05 05:24:08;;;;;;;15.63;4.47;;;9.50;99.90;;;;;;4920711;29;20048;-79
2023/01/05 05:26:34;;;;;;;16.17;4.95;;;9.50;99.90;;;;;;4925432;29;20051;-78
2023/01/05 05:29:00;;;;;;;15.80;4.75;;;9.50;99.90;;;;;;4920344;29;20036;-79
2023/01/05 05:31:25;;;;;;;14.90;4.10;;;9.50;99.90;;;;;;4906517;29;20083;-79
2023/01/05 05:33:51;;;;;;;11.88;4.10;;;9.50;99.90;;;;;;4906157;29;20055;-79
2023/01/05 05:36:17;;;;;;;19.42;4.32;;;9.50;99.90;;;;;;4907189;29;20085;-79
2023/01/05 05:38:43;;;;;;;19.05;3.58;;;9.50;99.90;;;;;;4920525;29;20051;-78
2023/01/05 05:41:09;;;;;;;9.38;4.13;;;9.50;99.90;;;;;;4910762;28;20146;-79
2023/01/05 05:43:34;;;;;;;27.92;4.85;;;9.50;99.90;;;;;;4924163;29;20131;-78
2023/01/05 05:46:00;;;;;;;14.25;3.78;;;9.50;99.90;;;;;;4923519;28;20493;-79
2023/01/05 05:48:26;;;;;;;12.35;3.42;;;9.50;99.90;;;;;;4924406;29;20074;-79
2023/01/05 05:50:52;;;;;;;17.88;4.35;;;9.50;99.90;;;;;;4924711;29;20040;-79
2023/01/05 05:53:17;;;;;;;11.45;3.90;;;9.50;99.90;;;;;;4925499;28;20075;-79
2023/01/05 05:55:47;;;;;;;11.98;4.47;;;9.50;99.90;;;;;;4923368;28;20052;-78
2023/01/05 05:58:13;;;;;;;27.23;4.85;;;9.50;99.90;;;;;;4923774;29;20091;-79
2023/01/05 06:00:39;;;;;;;9.88;3.22;;;9.50;99.90;;;;;;4922283;29;20436;-79
2023/01/05 06:03:04;;;;;;;12.55;4.47;;;9.50;99.90;;;;;;4922849;29;20052;-79
2023/01/05 06:05:30;;;;;;;11.75;3.25;;;9.50;99.90;;;;;;4907677;28;20087;-79
2023/01/05 06:07:56;;;;;;;9.07;3.65;;;9.50;99.90;;;;;;4907027;28;20380;-79
2023/01/05 06:10:21;;;;;;;21.33;4.63;;;9.50;99.90;;;;;;4905851;29;20548;-79
2023/01/05 06:12:47;;;;;;;18.75;4.63;;;9.50;99.90;;;;;;4905949;28;20094;-79
2023/01/05 06:15:13;;;;;;;12.02;4.10;;;9.50;99.90;;;;;;4905390;28;20047;-78
2023/01/05 06:17:38;;;;;;;9.60;4.45;;;9.50;99.90;;;;;;4913921;29;20052;-79
2023/01/05 06:20:05;;;;;;;21.17;3.35;;;9.50;99.90;;;;;;4924319;29;20050;-79
2023/01/05 06:22:31;;;;;;;10.38;4.45;;;9.40;99.90;;;;;;4924115;29;20122;-79
2023/01/05 06:24:57;;;;;;;15.15;6.18;;;9.40;99.90;;;;;;4906538;29;20138;-79
2023/01/05 06:27:22;;;;;;;17.02;4.13;;;9.40;99.90;;;;;;4922530;28;20047;-79
2023/01/05 06:29:48;;;;;;;12.00;3.80;;;9.40;99.90;;;;;;4927732;29;20494;-79
2023/01/05 06:32:13;;;;;;;17.38;4.35;;;9.40;99.90;;;;;;4928206;29;20075;-79
2023/01/05 06:34:39;;;;;;;19.08;4.05;;;9.40;99.90;;;;;;4927820;29;20044;-78
2023/01/05 06:37:05;;;;;;;15.10;4.45;;;9.40;99.90;;;;;;4926419;28;20094;-78
2023/01/05 06:39:31;;;;;;;11.73;4.65;;;9.50;99.90;;;;;;4927858;28;20040;-78
2023/01/05 06:41:57;;;;;;;7.22;3.13;;;9.40;99.90;;;;;;4925113;29;20054;-79
2023/01/05 06:44:22;;;;;;;18.17;3.20;;;9.40;99.90;;;;;;4916374;29;20059;-79
2023/01/05 06:46:48;;;;;;;18.42;5.70;;;9.40;99.90;;;;;;4911985;29;20126;-79
2023/01/05 06:49:13;;;;;;;27.98;3.97;;;9.40;99.90;;;;;;4926851;29;20528;-78
2023/01/05 06:51:39;;;;;;;11.57;4.25;;;9.40;99.90;;;;;;4926260;29;20058;-78
2023/01/05 06:54:05;;;;;;;10.88;5.00;;;9.40;99.90;;;;;;4914636;29;20157;-79
2023/01/05 06:56:31;;;;;;;7.85;2.88;;;9.40;99.90;;;;;;4911518;29;20047;-79
2023/01/05 06:58:57;;;;;;;7.32;3.22;;;9.40;99.90;;;;;;4908808;29;20189;-79
2023/01/05 07:01:22;;;;;;;13.60;3.53;;;9.30;99.90;;;;;;4913583;28;20052;-79
2023/01/05 07:03:48;;;;;;;22.35;3.80;;;9.40;99.90;;;;;;4908826;29;20040;-78
2023/01/05 07:06:15;;;;;;;4.90;2.45;;;9.30;99.90;;;;;;4908715;28;20060;-79
2023/01/05 07:08:41;;;;;;;11.18;2.90;;;9.20;99.90;;;;;;4907593;29;20498;-79
2023/01/05 07:11:07;;;;;;;11.13;2.22;;;9.20;99.90;;;;;;4909176;28;20046;-79
2023/01/05 07:13:32;;;;;;;12.13;2.92;;;9.20;99.90;;;;;;4924417;29;20043;-79
2023/01/05 07:15:58;;;;;;;16.67;3.28;;;9.20;99.90;;;;;;4920535;28;20098;-79
2023/01/05 07:18:23;;;;;;;12.07;3.67;;;9.20;99.90;;;;;;4908279;29;20128;-79
2023/01/05 07:20:49;;;;;;;10.85;4.80;;;9.20;99.90;;;;;;4926995;29;20044;-79
2023/01/05 07:23:15;;;;;;;10.70;2.72;;;9.10;99.90;;;;;;4925060;29;20536;-79
2023/01/05 07:25:40;;;;;;;13.10;4.18;;;9.10;99.90;;;;;;4925012;28;20122;-79
2023/01/05 07:28:06;;;;;;;7.13;2.83;;;9.20;99.90;;;;;;4909380;29;20049;-79
2023/01/05 07:30:31;;;;;;;9.38;3.53;;;9.20;99.90;;;;;;4908258;29;20048;-79
2023/01/05 07:32:58;;;;;;;9.15;3.60;;;9.20;99.90;;;;;;4909059;28;20040;-79
2023/01/05 07:35:23;;;;;;;10.45;4.18;;;9.20;99.90;;;;;;4907969;29;20085;-79
2023/01/05 07:37:49;;;;;;;11.85;3.50;;;9.20;99.90;;;;;;4908636;29;20086;-79
2023/01/05 07:40:14;;;;;;;6.47;2.47;;;9.20;99.90;;;;;;4907827;29;20600;-78
2023/01/05 07:42:41;;;;;;;10.10;4.07;;;9.20;99.90;;;;;;4907238;29;20075;-79
2023/01/05 07:45:07;;;;;;;11.15;3.88;;;9.30;99.90;;;;;;4907577;29;20107;-79
2023/01/05 07:47:33;;;;;;;8.85;4.40;;;9.20;99.90;;;;;;4908064;28;20036;-79
2023/01/05 07:49:59;;;;;;;14.93;3.42;;;9.20;99.90;;;;;;4907437;29;20048;-79
2023/01/05 07:52:28;;;;;;;15.70;4.60;;;9.20;99.90;;;;;;4907715;28;20043;-79
2023/01/05 07:54:54;;;;;;;8.70;4.38;;;9.30;99.90;;;;;;4907436;29;20048;-79
2023/01/05 07:57:19;;;;;;;14.52;4.95;;;9.30;99.90;;;;;;4905941;29;20376;-79
2023/01/05 07:59:45;;;;;;;12.27;3.63;;;9.30;99.90;;;;;;4908906;28;20046;-79
2023/01/05 08:02:11;;;;;;;15.23;5.10;;;9.30;99.90;;;;;;4912404;29;20085;-79
2023/01/05 08:04:36;;;;;;;13.07;3.60;;;9.30;99.90;;;;;;4916741;29;20505;-79
2023/01/05 08:07:06;;;;;;;19.20;3.90;;;9.30;99.90;;;;;;4926044;28;20056;-79
2023/01/05 08:10:32;;;;;;;14.20;3.92;;;9.30;99.90;;;;;;4926387;29;20102;-79
2023/01/05 08:12:28;;;;;;;17.52;4.65;;;9.20;99.90;;;;;;4915946;29;21055;-79
2023/01/05 08:14:53;;;;;;;10.00;3.65;;;9.20;99.90;;;;;;4923239;29;20051;-79
2023/01/05 08:17:19;;;;;;;10.63;4.78;;;9.30;99.90;;;;;;4909531;28;20072;-79
2023/01/05 08:19:45;;;;;;;19.45;4.65;;;9.30;99.90;;;;;;4926418;29;20059;-79
2023/01/05 08:22:11;;;;;;;20.50;5.60;;;9.30;99.90;;;;;;4926142;29;20044;-79
2023/01/05 08:24:36;;;;;;;14.35;4.43;;;9.30;99.90;;;;;;4912122;28;20544;-79
2023/01/05 08:27:02;;;;;;;8.10;4.20;;;9.30;99.90;;;;;;4907373;29;20044;-79
2023/01/05 08:29:28;;;;;;;17.05;5.05;;;9.30;99.90;;;;;;4925257;29;20036;-78
2023/01/05 08:31:54;;;;;;;24.63;6.70;;;9.30;99.90;;;;;;4925895;29;20079;-79
2023/01/05 08:34:19;;;;;;;14.30;5.03;;;9.30;99.90;;;;;;4925120;29;20130;-78
2023/01/05 08:36:45;;;;;;;13.82;4.40;;;9.30;99.90;;;;;;4925938;29;20069;-78
2023/01/05 08:39:11;;;;;;;11.27;3.85;;;9.30;99.90;;;;;;4924426;29;20482;-79
2023/01/05 08:41:38;;;;;;;14.07;4.22;;;9.30;99.90;;;;;;4925294;28;20044;-79
2023/01/05 08:44:06;;;;;;;22.42;4.97;;;9.30;99.90;;;;;;4925426;29;20044;-79
2023/01/05 08:46:33;;;;;;;20.00;4.72;;;9.30;99.90;;;;;;4925861;28;20054;-79
2023/01/05 08:49:02;;;;;;;14.48;5.47;;;9.30;99.90;;;;;;4939900;29;20071;-79
2023/01/05 08:51:29;;;;;;;13.23;3.00;;;9.30;99.90;;;;;;4924602;28;20052;-79
2023/01/05 08:53:54;;;;;;;7.70;3.13;;;9.30;99.90;;;;;;4922469;29;20134;-79
2023/01/05 08:56:23;;;;;;;16.10;4.35;;;9.30;99.90;;;;;;4923925;29;20549;-80
2023/01/05 08:58:49;;;;;;;22.00;4.70;;;9.40;99.90;;;;;;4925329;28;20787;-79
2023/01/05 09:01:17;;;;;;;14.15;4.90;;;9.30;99.90;;;;;;4925728;29;20130;-79
2023/01/05 09:03:43;;;;;;;15.88;5.10;;;9.30;99.90;;;;;;4923910;29;20076;-79
2023/01/05 09:06:11;;;;;;;8.63;3.55;;;9.30;99.90;;;;;;4923018;28;20660;-79
2023/01/05 09:08:38;;;;;;;23.50;5.03;;;9.30;99.90;;;;;;4917674;29;20494;-79
2023/01/05 09:11:09;;;;;;;24.08;4.03;;;9.40;99.90;;;;;;4907753;29;20040;-79
2023/01/05 09:13:38;;;;;;;5.97;2.90;;;9.40;99.90;;;;;;4908214;29;20052;-79
2023/01/05 09:16:09;;;;;;;13.98;5.07;;;9.30;99.90;;;;;;4918128;29;20048;-79
2023/01/05 09:18:36;;;;;;;17.13;4.43;;;9.40;99.90;;;;;;4919208;29;20048;-78
2023/01/05 09:21:02;;;;;;;10.45;3.58;;;9.40;99.90;;;;;;4924685;28;20058;-79
2023/01/05 09:23:27;;;;;;;14.18;5.93;;;9.40;99.90;;;;;;4906478;29;20473;-78
2023/01/05 09:25:53;;;;;;;16.15;5.35;;;9.40;99.90;;;;;;4921453;29;20083;-80
2023/01/05 09:28:18;;;;;;;12.68;3.72;;;9.40;99.90;;;;;;4909679;28;20047;-79
2023/01/05 09:30:44;;;;;;;14.13;4.97;;;9.40;99.90;;;;;;4906566;29;20506;-79
2023/01/05 09:33:10;;;;;;;10.77;3.63;;;9.40;99.90;;;;;;4904005;29;20052;-79
2023/01/05 09:35:35;;;;;;;13.07;3.90;;;9.40;99.90;;;;;;4919667;29;20121;-79
2023/01/05 09:38:01;;;;;;;14.30;4.47;;;9.40;99.90;;;;;;4919377;28;20040;-79
2023/01/05 09:40:27;;;;;;;8.18;3.05;;;9.50;99.90;;;;;;4922003;29;20101;-81
2023/01/05 09:42:53;;;;;;;14.40;3.65;;;9.50;99.90;;;;;;4918484;29;20051;-78
2023/01/05 09:45:27;;;;;;;25.88;4.30;;;9.50;99.90;;;;;;4906829;29;20106;-78
2023/01/05 09:47:56;;;;;;;16.58;4.35;;;9.50;99.90;;;;;;4911738;29;20042;-78
2023/01/05 09:50:24;;;;;;;14.30;5.28;;;9.50;99.90;;;;;;4919559;29;20048;-78
2023/01/05 09:52:56;;;;;;;18.67;2.58;;;9.50;99.90;;;;;;4924913;29;20051;-78
2023/01/05 09:55:24;;;;;;;10.23;4.13;;;9.60;99.90;;;;;;4924956;29;20147;-78
2023/01/05 09:57:52;;;;;;;13.32;5.05;;;9.50;99.90;;;;;;4921339;29;20505;-78
2023/01/05 10:00:20;;;;;;;12.05;4.95;;;9.50;99.90;;;;;;4939538;28;20043;-78
2023/01/05 10:03:14;;;;;;;9.65;3.30;;;9.60;99.90;;;;;;4929580;29;20047;-77
2023/01/05 10:05:43;;;;;;;13.82;4.13;;;9.60;99.90;;;;;;4930283;28;20062;-78
2023/01/05 10:08:27;;;;;;;17.25;5.45;;;9.60;99.90;;;;;;4915947;29;20699;-78
2023/01/05 10:14:05;;;;;;;17.23;4.93;;;9.60;99.90;;;;;;4928862;29;20121;-78
2023/01/05 10:16:31;;;;;;;6.95;3.50;;;9.60;99.90;;;;;;4924399;29;20055;-78
2023/01/05 10:18:57;;;;;;;12.73;3.00;;;9.60;99.90;;;;;;4949920;29;20051;-79
2023/01/05 10:21:41;;;;;;;5.97;3.05;;;9.60;99.90;;;;;;4933135;29;20055;-82
2023/01/05 10:24:34;;;;;;;12.75;3.25;;;9.70;99.90;;;;;;4929195;29;20083;-79
2023/01/05 10:27:00;;;;;;;;;;;9.70;99.90;;;;;;4924768;29;20052;-78
2023/01/05 10:29:45;;;;;;;9.93;2.83;;;9.70;99.90;;;;;;4925186;28;20392;-78
2023/01/05 10:32:27;;;;;;;6.50;3.25;;;9.70;99.90;;;;;;4924013;28;20513;-77
2023/01/05 10:34:56;;;;;;;10.63;3.85;;;9.70;99.90;;;;;;4928405;29;20103;-78
2023/01/05 10:37:27;;;;;;;12.25;3.83;;;9.80;99.90;;;;;;4925120;29;20131;-78
2023/01/05 10:40:11;;;;;;;10.73;4.20;;;9.70;99.90;;;;;;4943300;28;20135;-79
2023/01/05 10:42:39;;;;;;;7.70;3.30;;;9.80;99.90;;;;;;4927119;28;20119;-78
2023/01/05 10:45:17;;;;;;;4.05;2.22;;;9.70;99.90;;;;;;4925248;28;20075;-78
2023/01/05 10:47:44;;;;;;;13.55;3.88;;;9.70;99.90;;;;;;4923499;29;20044;-79
2023/01/05 10:50:38;;;;;;;7.38;3.05;;;9.80;99.90;;;;;;4918582;29;20036;-79
2023/01/05 10:53:09;;;;;;;10.30;3.03;;;9.80;99.90;;;;;;4934822;29;20075;-78
2023/01/05 10:55:56;;;;;;;23.13;4.55;;;9.80;99.90;;;;;;4922142;28;20056;-79
2023/01/05 10:58:43;;;;;;;13.77;5.28;;;9.80;99.90;;;;;;4924746;28;20047;-79
2023/01/05 11:01:29;;;;;;;8.85;3.42;;;9.80;99.90;;;;;;4917742;29;20540;-78
2023/01/05 11:04:16;;;;;;;15.40;4.15;;;9.80;99.90;;;;;;4941058;28;20039;-80
2023/01/05 11:06:43;;;;;;;7.43;3.67;;;9.80;99.90;;;;;;4928976;28;20139;-79
2023/01/05 11:09:16;;;;;;;20.27;5.28;;;9.80;99.90;;;;;;4929873;28;20051;-79
2023/01/05 11:11:42;;;;;;;13.30;4.38;;;9.80;99.90;;;;;;4929551;29;20079;-79
2023/01/05 11:14:15;;;;;;;7.97;2.13;;;9.90;99.90;;;;;;4924599;28;20039;-79
2023/01/05 11:16:48;;;;;;;10.57;3.72;;;9.90;99.90;;;;;;4923072;29;20043;-79
2023/01/05 11:19:16;;;;;;;13.57;3.50;;;9.90;99.90;;;;;;4918760;28;20139;-80
2023/01/05 11:21:46;;;;;;;7.80;3.20;;;9.90;99.90;;;;;;4924393;28;20036;-80
2023/01/05 11:24:23;;;;;;;9.48;3.63;;;9.80;99.90;;;;;;4926879;29;20052;-80
2023/01/05 11:26:51;;;;;;;17.40;5.05;;;9.80;99.90;;;;;;4921966;29;20490;-80
2023/01/05 11:29:17;;;;;;;15.48;2.78;;;9.80;99.90;;;;;;4926537;29;20138;-80
2023/01/05 11:31:45;;;;;;;11.52;3.88;;;9.80;99.90;;;;;;4926416;29;20164;-80
2023/01/05 11:34:25;;;;;;;13.82;4.32;;;9.80;99.90;;;;;;4926039;29;20111;-79
2023/01/05 11:37:06;;;;;;;13.13;4.40;;;9.80;99.90;;;;;;4921301;29;20149;-79
2023/01/05 11:39:33;;;;;;;8.30;3.90;;;9.80;99.90;;;;;;4925908;29;20173;-79
2023/01/05 11:42:19;;;;;;;9.57;2.25;;;9.80;99.90;;;;;;4924692;29;20106;-78
2023/01/05 11:45:06;;;;;;;16.23;2.90;;;9.80;99.90;;;;;;4926783;29;20071;-79
2023/01/05 11:47:42;;;;;;;5.93;2.50;;;9.80;99.90;;;;;;5003456;28;20045;-80
2023/01/05 11:50:08;;;;;;;6.78;2.67;;;9.80;99.90;;;;;;4931552;28;20502;-79
2023/01/05 11:52:42;;;;;;;8.75;3.22;;;9.90;99.90;;;;;;4925422;29;20051;-80
2023/01/05 11:55:23;;;;;;;13.85;2.85;;;9.90;99.90;;;;;;4926274;29;20910;-80
2023/01/05 11:57:51;;;;;;;11.25;3.33;;;9.90;99.90;;;;;;4925539;29;20434;-80
2023/01/05 12:00:23;;;;;;;8.32;3.78;;;9.90;99.90;;;;;;4921913;29;20562;-80
2023/01/05 12:03:33;;;;;;;32.85;4.25;;;9.90;99.90;;;;;;4902893;29;20089;-80
2023/01/05 12:06:28;;;;;;;7.20;2.80;;;9.90;99.90;;;;;;4923503;29;20056;-79
2023/01/05 12:09:08;;;;;;;10.45;3.40;;;10.00;99.90;;;;;;4922762;29;20043;-79
2023/01/05 12:11:54;;;;;;;11.30;4.03;;;10.00;99.90;;;;;;4923767;29;20548;-79
2023/01/05 12:14:40;;;;;;;6.88;3.05;;;10.00;99.90;;;;;;4915446;28;20182;-80
2023/01/05 12:17:27;;;;;;;13.02;4.03;;;10.00;99.90;;;;;;4913983;29;20079;-79
2023/01/05 12:20:04;;;;;;;9.20;3.58;;;10.00;99.90;;;;;;4920616;28;20111;-79
2023/01/05 12:22:58;;;;;;;7.43;4.07;;;10.00;99.90;;;;;;4919743;29;20094;-79
2023/01/05 12:25:29;;;;;;;36.25;6.45;;;10.00;99.90;;;;;;4913215;29;20032;-79
2023/01/05 12:28:37;;;;;;;20.35;4.13;;;10.00;99.90;;;;;;4916659;28;20044;-79
2023/01/05 12:31:34;;;;;;;15.65;4.45;;;10.00;99.90;;;;;;4906525;28;20055;-81
2023/01/05 12:34:14;;;;;;;13.13;3.53;;;10.00;99.90;;;;;;4920731;29;20474;-80
2023/01/05 12:37:15;;;;;;;13.60;5.13;;;10.00;99.90;;;;;;4915642;29;20039;-80
2023/01/05 12:40:07;;;;;;;16.95;3.00;;;10.00;99.90;;;;;;4923999;29;20052;-87
2023/01/05 12:42:57;;;;;;;9.73;3.28;;;10.00;99.90;;;;;;4932192;28;20133;-80
2023/01/05 12:45:49;;;;;;;11.68;3.75;;;10.00;99.90;;;;;;4924602;29;20047;-78
2023/01/05 12:48:20;;;;;;;12.63;4.30;;;10.00;99.90;;;;;;4924553;29;20047;-80
2023/01/05 12:51:08;;;;;;;11.25;2.50;;;10.00;99.90;;;;;;4925746;28;20043;-78
2023/01/05 12:53:39;;;;;;;17.65;3.47;;;10.00;99.90;;;;;;4919958;29;20052;-79
2023/01/05 12:56:47;;;;;;;9.27;3.30;;;10.00;99.90;;;;;;4923155;29;20050;-79
2023/01/05 12:59:23;;;;;;;18.45;5.13;;;10.00;99.90;;;;;;4957920;28;20085;-78
2023/01/05 13:02:00;;;;;;;29.40;5.55;;;10.00;99.90;;;;;;4915518;28;20062;-79
2023/01/05 13:04:39;;;;;;;16.05;4.80;;;10.00;99.90;;;;;;4907954;29;20507;-78
2023/01/05 13:07:10;;;;;;;20.10;3.60;;;10.00;99.90;;;;;;4922834;29;20055;-78
2023/01/05 13:09:37;;;;;;;16.27;3.35;;;10.00;99.90;;;;;;4914845;29;20071;-78
2023/01/05 13:12:12;;;;;;;8.32;3.13;;;10.00;99.90;;;;;;4921010;29;20044;-77
2023/01/05 13:14:51;;;;;;;10.65;3.95;;;10.00;99.90;;;;;;4905690;29;20125;-77
2023/01/05 13:17:40;;;;;;;11.75;5.10;;;10.00;99.90;;;;;;4914454;29;20048;-77
2023/01/05 13:20:34;;;;;;;19.30;5.15;;;10.00;99.90;;;;;;4913500;29;20406;-77
2023/01/05 13:23:15;;;;;;;15.95;3.90;;;10.00;99.90;;;;;;4924735;29;20047;-77
2023/01/05 13:25:53;;;;;;;9.23;3.03;;;10.00;99.90;;;;;;4916801;29;20063;-77
2023/01/05 13:28:20;;;;;;;13.57;3.78;;;10.00;99.90;;;;;;4923174;29;20081;-77
2023/01/05 13:30:58;;;;;;;6.70;3.58;;;10.00;99.90;;;;;;4918494;29;20044;-76
2023/01/05 13:34:01;;;;;;;8.70;2.65;;;10.00;99.90;;;;;;4936052;29;20090;-76
2023/01/05 13:36:29;;;;;;;10.48;4.00;;;10.00;99.90;;;;;;4904058;29;20079;-77
2023/01/05 13:39:26;;;;;;;15.75;3.65;;;10.00;99.90;;;;;;4916242;28;20075;-77